Floda, Sweden

6:06 AM CEST on May 24, 2015 (GMT +0200)
Sparreholm | | Change Station
CLOSE
Current Station
Personal Weather Station
Location: Sparreholm, SDERMANLANDS LN
Elevation: 125 ft
Nearby Weather Stations

Elev 125 ft 59.07 °N, 16.83 °E | Updated 14 seconds ago

Clear
Clear
46.6 °F
Feels Like 47 °F
N
0.3
Wind Variable Wind from WSW
Gusts 2.2 mph

Today
High -- | Low -- °F
--% Chance of Precip.
Yesterday
High -- | Low -- °F
Precip. -- in
4:06 AM 9:37 PM
Waxing Crescent, 35% visible
Pressure 29.92 in
Visibility -9999.0 miles
Clouds
Windchill 47 °F
Dew Point 35 °F
Humidity 63%
Rainfall 0.00 in
Snow Depth Not available.
UV Not available.
Pollen Not available.
Air Quality Not available.
Flu Activity Not available.
METAR ESKN 240350Z 26003KT CAVOK 06/03 Q1013

More Conditions Fewer Conditions

Pressure 29.92 in
Visibility -9999.0 miles
Clouds
Windchill 47 °F
Dew Point 35 °F
Humidity 63%
Rainfall 0.00 in
Snow Depth Not available.
UV Not available.
Pollen Not available.
Air Quality Not available.
Flu Activity Not available.
METAR ESKN 240350Z 26003KT CAVOK 06/03 Q1013

More Conditions Fewer Conditions

10-Day Weather Forecast

Almanac

Astronomy

May. 24, 2015 Rise Set
Actual Time
Civil Twilight
Nautical Twilight
Astronomical Twilight
Moon
Length of Visible Light
Length of Day
Tomorrow will be .
, % of the Moon is Illuminated

Today's Extremes

Country Highs Country Lows

Community

WunderPhotos

Upload Photos

1,823,679 photos uploaded!

WunderBlogs® & News

Nearby

Air Quality

  Air Quality AQ Index Pollutant
Not available.

Snow Depth

Station Depth Elevation

Earthquake Activity

City Distance Mag. Time & Date
Minimum magnitude displayed is 2.5.

Coastal Water Temperatures

Place Temperature

Stations

Nearby Weather Stations

Station Location Temp. Windchill Dew Point Humidity Wind Precip. Elev Updated Type